createdAt,value
2023-03-13T00:02:36.582Z,99923.69
2023-03-13T00:07:41.959Z,99915.00
2023-03-13T00:12:47.486Z,99914.80
2023-03-13T00:17:52.899Z,99904.34
2023-03-13T00:22:58.563Z,99906.45
2023-03-13T00:28:03.950Z,99920.11
2023-03-13T00:33:10.470Z,99920.77
2023-03-13T00:38:15.932Z,99913.02
2023-03-13T00:43:21.396Z,99907.67
2023-03-13T00:48:27.204Z,99908.94
2023-03-13T00:53:32.733Z,99900.91
2023-03-13T00:58:40.882Z,99898.14
2023-03-13T01:03:49.480Z,99895.81
2023-03-13T01:08:55.401Z,99895.03
2023-03-13T01:14:03.825Z,99889.92
2023-03-13T01:19:15.953Z,99893.81
2023-03-13T01:24:24.706Z,99894.96
2023-03-13T01:29:30.280Z,99895.75
2023-03-13T01:34:37.190Z,99891.92
2023-03-13T01:39:42.990Z,99884.48
2023-03-13T01:44:54.731Z,99869.80
2023-03-13T01:50:01.326Z,99864.92
2023-03-13T01:55:27.025Z,99853.82
2023-03-13T02:00:36.840Z,99846.63
2023-03-13T02:05:45.363Z,99837.67
2023-03-13T02:10:57.617Z,99821.52
2023-03-13T02:16:04.306Z,99805.27
2023-03-13T02:21:43.336Z,99801.28
2023-03-13T02:26:49.106Z,99796.58
2023-03-13T02:31:55.498Z,99809.71
2023-03-13T02:37:02.882Z,99803.13
2023-03-13T02:42:09.823Z,99808.24
2023-03-13T02:47:24.702Z,99806.72
2023-03-13T02:52:38.473Z,99798.84
2023-03-13T02:57:44.351Z,99802.20
2023-03-13T03:02:49.832Z,99797.66
2023-03-13T03:07:55.523Z,99793.11
2023-03-13T03:13:01.640Z,99781.84
2023-03-13T03:18:08.391Z,99784.41
2023-03-13T03:23:14.065Z,99767.05
2023-03-13T03:28:19.608Z,99768.38
2023-03-13T03:33:25.755Z,99761.66
2023-03-13T03:38:32.086Z,99762.69
2023-03-13T03:43:37.737Z,99759.77
2023-03-13T03:48:44.023Z,99748.67
2023-03-13T03:53:50.043Z,99741.73
2023-03-13T03:58:55.645Z,99741.55
2023-03-13T04:04:03.647Z,99724.40
2023-03-13T04:09:11.008Z,99713.50
2023-03-13T04:14:16.766Z,99704.94
2023-03-13T04:19:23.055Z,99698.20
2023-03-13T04:24:29.148Z,99689.34
2023-03-13T04:29:35.842Z,99680.45
2023-03-13T04:34:43.608Z,99670.31
2023-03-13T04:39:56.880Z,99651.41
2023-03-13T04:45:04.018Z,99660.71
2023-03-13T04:50:27.383Z,99654.36
2023-03-13T04:55:52.790Z,99640.88
2023-03-13T05:01:06.595Z,99647.33
2023-03-13T05:06:16.676Z,99630.06
2023-03-13T05:11:36.108Z,99622.54
2023-03-13T05:17:12.119Z,99613.34
2023-03-13T05:22:34.628Z,99600.42
2023-03-13T05:27:59.779Z,99601.94
2023-03-13T05:33:06.887Z,99594.98
2023-03-13T05:38:23.328Z,99584.91
2023-03-13T05:43:46.694Z,99568.95
2023-03-13T05:48:53.927Z,99555.27
2023-03-13T05:54:01.064Z,99559.92
2023-03-13T05:59:24.665Z,99551.71
2023-03-13T06:04:38.193Z,99544.67
2023-03-13T06:09:43.924Z,99521.00
2023-03-13T06:14:49.549Z,99505.94
2023-03-13T06:20:02.628Z,99491.39
2023-03-13T06:25:08.991Z,99474.94
2023-03-13T06:30:14.695Z,99469.25
2023-03-13T06:35:20.405Z,99467.62
2023-03-13T06:40:25.940Z,99457.17
2023-03-13T06:45:31.686Z,99457.38
2023-03-13T06:50:42.170Z,99450.62
2023-03-13T06:55:49.286Z,99435.50
2023-03-13T07:00:54.976Z,99433.38
2023-03-13T07:06:01.091Z,99428.80
2023-03-13T07:11:09.942Z,99412.82
2023-03-13T07:16:16.624Z,99408.62
2023-03-13T07:21:22.104Z,99403.80
2023-03-13T07:26:27.675Z,99403.30
2023-03-13T07:31:34.300Z,99388.30
2023-03-13T07:36:41.783Z,99382.02
2023-03-13T07:41:47.649Z,99364.88
2023-03-13T07:46:54.970Z,99365.19
2023-03-13T07:52:00.563Z,99351.91
2023-03-13T07:57:06.875Z,99335.45
2023-03-13T08:02:17.253Z,99315.87
2023-03-13T08:07:22.940Z,99316.73
2023-03-13T08:12:28.398Z,99313.28
2023-03-13T08:17:33.945Z,99301.92
2023-03-13T08:22:39.419Z,99285.16
2023-03-13T08:27:45.191Z,99293.22
2023-03-13T08:32:50.885Z,99266.33
2023-03-13T08:37:56.388Z,99273.39
2023-03-13T08:43:01.849Z,99249.84
2023-03-13T08:48:07.573Z,99251.83
2023-03-13T08:53:13.144Z,99243.45
2023-03-13T08:58:19.121Z,99206.84
2023-03-13T09:03:24.736Z,99189.84
2023-03-13T09:08:31.834Z,99188.55
2023-03-13T09:13:39.946Z,99172.66
2023-03-13T09:18:46.369Z,99168.66
2023-03-13T09:23:52.859Z,99156.30
2023-03-13T09:28:58.736Z,99142.33
2023-03-13T09:34:05.074Z,99141.25
2023-03-13T09:39:10.567Z,99137.95
2023-03-13T09:44:24.783Z,99130.70
2023-03-13T09:49:37.103Z,99117.34
2023-03-13T09:55:06.919Z,99112.60
2023-03-13T10:00:24.430Z,99107.53
2023-03-13T10:05:31.563Z,99090.89
2023-03-13T10:10:42.827Z,99090.28
2023-03-13T10:15:57.198Z,99090.77
2023-03-13T10:21:08.475Z,99083.61
2023-03-13T10:26:20.019Z,99077.29
2023-03-13T10:31:37.203Z,99072.44
2023-03-13T10:36:46.053Z,99077.29
2023-03-13T10:41:53.863Z,99067.33
2023-03-13T10:47:02.824Z,99053.92
2023-03-13T10:52:09.887Z,99043.91
2023-03-13T10:57:20.902Z,99045.34
2023-03-13T11:02:36.244Z,99040.63
2023-03-13T11:07:41.871Z,99038.05
2023-03-13T11:12:51.420Z,99021.41
2023-03-13T11:18:08.858Z,99023.89
2023-03-13T11:23:23.470Z,99021.34
2023-03-13T11:28:47.174Z,99020.37
2023-03-13T11:34:26.994Z,99000.27
2023-03-13T11:39:47.755Z,98990.67
2023-03-13T11:45:11.396Z,98981.55
2023-03-13T11:50:29.399Z,98981.22
2023-03-13T11:55:42.498Z,98974.36
2023-03-13T12:00:55.865Z,98984.73
2023-03-13T12:06:27.338Z,98967.21
2023-03-13T12:11:32.720Z,98968.75
2023-03-13T12:16:47.581Z,98962.81
2023-03-13T12:21:55.816Z,98971.78
2023-03-13T12:27:04.422Z,98961.26
2023-03-13T12:32:37.197Z,98956.89
2023-03-13T12:37:59.238Z,98954.50
2023-03-13T12:43:07.655Z,98939.06
2023-03-13T12:48:37.087Z,98929.37
2023-03-13T12:54:08.815Z,98937.11
2023-03-13T12:59:23.192Z,98938.75
2023-03-13T13:04:31.669Z,98935.49
2023-03-13T13:09:40.194Z,98925.31
2023-03-13T13:14:54.585Z,98933.28
2023-03-13T13:20:00.048Z,98921.40
2023-03-13T13:25:30.899Z,98913.33
2023-03-13T13:30:37.001Z,98928.24
2023-03-13T13:35:42.741Z,98902.11
2023-03-13T13:41:11.895Z,98874.94
2023-03-13T13:46:37.071Z,98878.20
2023-03-13T13:51:44.274Z,98889.45
2023-03-13T13:57:13.320Z,98883.23
2023-03-13T14:02:27.894Z,98872.45
2023-03-13T14:07:39.208Z,98870.03
2023-03-13T14:12:50.740Z,98866.98
2023-03-13T14:18:14.585Z,98860.47
2023-03-13T14:23:35.022Z,98885.23
2023-03-13T14:28:43.507Z,98876.03
2023-03-13T14:33:49.400Z,98871.91
2023-03-13T14:39:00.172Z,98869.61
2023-03-13T14:44:20.746Z,98861.48
2023-03-13T14:49:30.760Z,98867.55
2023-03-13T14:54:42.146Z,98865.22
2023-03-13T14:59:48.612Z,98860.19
2023-03-13T15:05:01.843Z,98838.80
2023-03-13T15:10:28.704Z,98856.33
2023-03-13T15:15:34.234Z,98846.20
2023-03-13T15:20:39.730Z,98839.31
2023-03-13T15:25:45.633Z,98836.92
2023-03-13T15:30:53.229Z,98839.14
2023-03-13T15:35:59.081Z,98821.45
2023-03-13T15:41:05.213Z,98832.38
2023-03-13T15:46:16.958Z,98822.29
2023-03-13T15:51:23.241Z,98829.86
2023-03-13T15:56:32.307Z,98822.98
2023-03-13T16:01:38.891Z,98810.16
2023-03-13T16:06:44.423Z,98807.79
2023-03-13T16:11:50.372Z,98802.77
2023-03-13T16:16:56.182Z,98799.88
2023-03-13T16:22:01.645Z,98787.25
2023-03-13T16:27:16.216Z,98793.64
2023-03-13T16:32:23.338Z,98794.02
2023-03-13T16:37:28.882Z,98782.03
2023-03-13T16:42:34.409Z,98790.45
2023-03-13T16:47:40.493Z,98789.95
2023-03-13T16:52:46.048Z,98777.81
2023-03-13T16:57:52.487Z,98769.07
2023-03-13T17:02:58.833Z,98751.53
2023-03-13T17:08:04.477Z,98746.70
2023-03-13T17:13:09.957Z,98748.16
2023-03-13T17:18:15.600Z,98754.55
2023-03-13T17:23:21.095Z,98736.52
2023-03-13T17:28:26.543Z,98727.95
2023-03-13T17:33:32.206Z,98732.17
2023-03-13T17:38:37.659Z,98714.33
2023-03-13T17:43:44.108Z,98715.98
2023-03-13T17:48:52.444Z,98707.57
2023-03-13T17:54:01.173Z,98713.97
2023-03-13T17:59:09.631Z,98706.87
2023-03-13T18:04:15.364Z,98709.22
2023-03-13T18:09:23.002Z,98726.98
2023-03-13T18:14:28.664Z,98728.48
2023-03-13T18:19:34.180Z,98724.24
2023-03-13T18:24:39.629Z,98722.73
2023-03-13T18:29:46.365Z,98724.89
2023-03-13T18:34:51.941Z,98715.66
2023-03-13T18:40:00.622Z,98702.53
2023-03-13T18:45:07.552Z,98702.36
2023-03-13T18:50:31.205Z,98700.67
2023-03-13T18:55:36.580Z,98692.45
2023-03-13T19:00:42.165Z,98703.36
2023-03-13T19:05:47.918Z,98696.61
2023-03-13T19:10:53.494Z,98693.23
2023-03-13T19:15:59.003Z,98690.72
2023-03-13T19:21:04.472Z,98692.56
2023-03-13T19:26:12.974Z,98675.25
2023-03-13T19:31:18.815Z,98665.61
2023-03-13T19:36:25.720Z,98667.77
2023-03-13T19:41:31.179Z,98681.36
2023-03-13T19:46:38.765Z,98669.61
2023-03-13T19:51:45.582Z,98660.52
2023-03-13T19:56:53.628Z,98665.23
2023-03-13T20:02:00.910Z,98659.84
2023-03-13T20:07:06.456Z,98661.16
2023-03-13T20:12:11.992Z,98654.27
2023-03-13T20:17:17.473Z,98669.04
2023-03-13T20:22:23.291Z,98671.38
2023-03-13T20:27:28.780Z,98650.58
2023-03-13T20:32:34.345Z,98637.45
2023-03-13T20:37:40.046Z,98656.77
2023-03-13T20:42:45.538Z,98666.70
2023-03-13T20:47:51.371Z,98660.16
2023-03-13T20:52:56.770Z,98662.19
2023-03-13T20:58:02.302Z,98648.94
2023-03-13T21:03:07.886Z,98631.48
2023-03-13T21:08:14.489Z,98639.72
2023-03-13T21:13:19.938Z,98634.00
2023-03-13T21:18:25.369Z,98624.92
2023-03-13T21:23:31.623Z,98598.07
2023-03-13T21:28:37.276Z,98602.10
2023-03-13T21:33:43.698Z,98613.85
2023-03-13T21:38:50.835Z,98607.63
2023-03-13T21:43:56.609Z,98611.98
2023-03-13T21:49:02.407Z,98615.20
2023-03-13T21:54:08.116Z,98613.68
2023-03-13T21:59:13.765Z,98613.52
2023-03-13T22:04:19.220Z,98610.67
2023-03-13T22:09:24.843Z,98618.90
2023-03-13T22:14:30.400Z,98638.53
2023-03-13T22:19:35.923Z,98641.40
2023-03-13T22:24:41.461Z,98632.49
2023-03-13T22:29:47.778Z,98618.88
2023-03-13T22:34:53.572Z,98605.61
2023-03-13T22:39:58.994Z,98613.33
2023-03-13T22:45:05.246Z,98619.73
2023-03-13T22:50:12.609Z,98599.39
2023-03-13T22:55:18.336Z,98605.59
2023-03-13T23:00:23.889Z,98609.45
2023-03-13T23:05:30.582Z,98588.47
2023-03-13T23:10:37.599Z,98603.56
2023-03-13T23:15:59.223Z,98627.38
2023-03-13T23:20:50.996Z,98631.61
2023-03-13T23:25:56.369Z,98616.33
2023-03-13T23:31:03.326Z,98601.34
2023-03-13T23:36:14.443Z,98591.95
2023-03-13T23:41:21.863Z,98608.41
2023-03-13T23:46:27.718Z,98611.42
2023-03-13T23:51:33.181Z,98615.79
2023-03-13T23:56:38.641Z,98605.68
